createdAt,value
2022-08-16T00:01:22.014Z,49449.91
2022-08-16T00:03:52.446Z,49437.94
2022-08-16T00:06:19.057Z,49437.94
2022-08-16T00:08:46.120Z,49459.88
2022-08-16T00:11:15.194Z,49426.00
2022-08-16T00:13:43.674Z,49439.94
2022-08-16T00:17:06.372Z,49463.88
2022-08-16T00:19:10.325Z,49469.84
2022-08-16T00:21:41.866Z,49459.88
2022-08-16T00:24:12.103Z,49459.88
2022-08-16T00:26:43.918Z,49469.84
2022-08-16T00:29:15.727Z,49439.94
2022-08-16T00:31:59.497Z,49461.88
2022-08-16T00:34:43.320Z,49441.94
2022-08-16T00:37:17.197Z,49483.81
2022-08-16T00:39:47.864Z,49471.84
2022-08-16T00:42:30.637Z,49479.81
2022-08-16T00:45:14.433Z,49457.88
2022-08-16T00:47:49.472Z,49483.81
2022-08-16T00:50:20.492Z,49427.97
2022-08-16T00:52:51.248Z,49471.84
2022-08-16T00:55:22.068Z,49437.94
2022-08-16T00:58:00.096Z,49424.00
2022-08-16T01:00:30.717Z,49463.88
2022-08-16T01:03:01.133Z,49485.78
2022-08-16T01:05:29.976Z,49439.94
2022-08-16T01:07:59.976Z,49483.81
2022-08-16T01:10:31.885Z,49463.88
2022-08-16T01:13:08.011Z,49451.91
2022-08-16T01:15:43.346Z,49457.88
2022-08-16T01:18:39.076Z,49455.88
2022-08-16T01:21:11.535Z,49467.84
2022-08-16T01:24:01.456Z,49459.88
2022-08-16T01:26:34.173Z,49471.84
2022-08-16T01:29:09.801Z,49455.88
2022-08-16T01:31:42.486Z,49449.91
2022-08-16T01:34:25.025Z,49487.78
2022-08-16T01:37:01.469Z,49473.84
2022-08-16T01:39:30.739Z,49439.94
2022-08-16T01:42:03.043Z,49517.69
2022-08-16T01:44:38.982Z,49461.88
2022-08-16T01:47:07.931Z,49459.88
2022-08-16T01:49:43.483Z,49499.75
2022-08-16T01:52:30.201Z,49487.78
2022-08-16T01:55:18.294Z,49491.78
2022-08-16T01:57:53.150Z,49475.81
2022-08-16T02:00:21.205Z,49491.78
2022-08-16T02:02:57.949Z,49463.88
2022-08-16T02:05:25.011Z,49473.84
2022-08-16T02:07:58.400Z,49465.84
2022-08-16T02:10:25.913Z,49515.69
2022-08-16T02:12:55.925Z,49475.81
2022-08-16T02:15:30.429Z,49449.91
2022-08-16T02:18:01.192Z,49453.91
2022-08-16T02:20:31.222Z,49447.91
2022-08-16T02:22:59.858Z,49483.81
2022-08-16T02:25:50.587Z,49463.88
2022-08-16T02:28:17.228Z,49483.81
2022-08-16T02:30:50.519Z,49499.75
2022-08-16T02:33:18.386Z,49481.81
2022-08-16T02:35:53.871Z,49481.81
2022-08-16T02:38:29.233Z,49493.75
2022-08-16T02:41:00.633Z,49507.72
2022-08-16T02:43:33.106Z,49511.72
2022-08-16T02:46:07.352Z,49499.75
2022-08-16T02:48:36.084Z,49477.81
2022-08-16T02:51:11.236Z,49467.84
2022-08-16T02:53:45.115Z,49487.78
2022-08-16T02:56:15.661Z,49553.56
2022-08-16T02:58:45.994Z,49467.84
2022-08-16T03:01:24.722Z,49475.81
2022-08-16T03:04:28.740Z,49499.75
2022-08-16T03:06:56.533Z,49491.78
2022-08-16T03:09:36.013Z,49467.84
2022-08-16T03:12:04.252Z,49459.88
2022-08-16T03:14:31.520Z,49499.75
2022-08-16T03:17:00.929Z,49501.75
2022-08-16T03:19:47.552Z,49511.72
2022-08-16T03:22:28.287Z,49467.84
2022-08-16T03:25:00.735Z,49463.88
2022-08-16T03:27:30.773Z,49467.84
2022-08-16T03:30:01.337Z,49499.75
2022-08-16T03:32:29.194Z,49503.72
2022-08-16T03:34:55.841Z,49487.78
2022-08-16T03:37:23.395Z,49467.84
2022-08-16T03:39:56.792Z,49487.78
2022-08-16T03:42:30.674Z,49491.78
2022-08-16T03:45:03.279Z,49475.81
2022-08-16T03:47:35.127Z,49453.91
2022-08-16T03:50:26.287Z,49483.81
2022-08-16T03:52:58.001Z,49437.94
2022-08-16T03:55:29.022Z,49479.81
2022-08-16T03:58:12.942Z,49457.88
2022-08-16T04:00:41.174Z,49475.81
2022-08-16T04:03:13.450Z,49515.69
2022-08-16T04:05:48.444Z,49471.84
2022-08-16T04:08:22.776Z,49483.81
2022-08-16T04:10:55.770Z,49483.81
2022-08-16T04:14:00.563Z,49519.69
2022-08-16T04:16:26.279Z,49503.72
2022-08-16T04:19:02.105Z,49487.78
2022-08-16T04:21:32.007Z,49481.81
2022-08-16T04:24:00.381Z,49491.78
2022-08-16T04:26:30.785Z,49493.75
2022-08-16T04:29:16.865Z,49517.69
2022-08-16T04:31:47.592Z,49479.81
2022-08-16T04:34:28.818Z,49495.75
2022-08-16T04:36:59.002Z,49527.66
2022-08-16T04:39:44.971Z,49521.69
2022-08-16T04:42:17.642Z,49499.75
2022-08-16T04:44:54.537Z,49521.69
2022-08-16T04:47:31.648Z,49479.81
2022-08-16T04:50:04.050Z,49499.75
2022-08-16T04:52:35.166Z,49501.75
2022-08-16T04:55:15.152Z,49505.72
2022-08-16T04:57:46.056Z,49485.78
2022-08-16T05:00:32.118Z,49485.78
2022-08-16T05:03:26.689Z,49471.84
2022-08-16T05:05:59.065Z,49491.78
2022-08-16T05:08:33.126Z,49489.78
2022-08-16T05:11:17.080Z,49487.78
2022-08-16T05:13:47.443Z,49497.75
2022-08-16T05:16:30.028Z,49465.84
2022-08-16T05:19:16.480Z,49473.84
2022-08-16T05:22:03.624Z,49503.72
2022-08-16T05:24:34.114Z,49493.75
2022-08-16T05:27:11.123Z,49523.66
2022-08-16T05:29:57.725Z,49463.88
2022-08-16T05:32:32.883Z,49491.78
2022-08-16T05:35:10.927Z,49495.75
2022-08-16T05:37:42.146Z,49489.78
2022-08-16T05:40:13.197Z,49471.84
2022-08-16T05:42:46.107Z,49491.78
2022-08-16T05:45:21.338Z,49503.72
2022-08-16T05:47:49.576Z,49475.81
2022-08-16T05:50:34.364Z,49483.81
2022-08-16T05:53:02.354Z,49495.75
2022-08-16T05:55:30.002Z,49509.72
2022-08-16T05:57:57.623Z,49503.72
2022-08-16T06:00:25.244Z,49499.75
2022-08-16T06:02:55.262Z,49497.75
2022-08-16T06:05:41.851Z,49505.72
2022-08-16T06:08:09.890Z,49483.81
2022-08-16T06:11:09.902Z,49495.75
2022-08-16T06:13:42.223Z,49483.81
2022-08-16T06:16:17.863Z,49467.84
2022-08-16T06:18:46.275Z,49453.91
2022-08-16T06:21:13.464Z,49507.72
2022-08-16T06:23:53.971Z,49481.81
2022-08-16T06:26:21.764Z,49481.81
2022-08-16T06:28:49.510Z,49463.88
2022-08-16T06:31:25.596Z,49453.91
2022-08-16T06:33:55.169Z,49473.84
2022-08-16T06:36:24.098Z,49495.75
2022-08-16T06:39:16.414Z,49441.94
2022-08-16T06:41:56.794Z,49451.91
2022-08-16T06:44:50.390Z,49467.84
2022-08-16T06:47:52.333Z,49489.78
2022-08-16T06:50:29.430Z,49487.78
2022-08-16T06:53:08.729Z,49449.91
2022-08-16T06:55:40.197Z,49455.88
2022-08-16T06:58:21.687Z,49461.88
2022-08-16T07:00:53.366Z,49471.84
2022-08-16T07:03:27.659Z,49463.88
2022-08-16T07:05:57.468Z,49461.88
2022-08-16T07:08:29.710Z,49465.84
2022-08-16T07:10:58.894Z,49416.03
2022-08-16T07:14:00.137Z,49439.94
2022-08-16T07:16:20.797Z,49443.94
2022-08-16T07:18:58.991Z,49441.94
2022-08-16T07:21:45.922Z,49422.00
2022-08-16T07:24:29.481Z,49459.88
2022-08-16T07:27:02.925Z,49431.97
2022-08-16T07:29:31.591Z,49455.88
2022-08-16T07:32:00.941Z,49435.97
2022-08-16T07:34:34.989Z,49463.88
2022-08-16T07:37:10.806Z,49445.94
2022-08-16T07:39:54.669Z,49437.94
2022-08-16T07:42:28.746Z,49412.03
2022-08-16T07:45:07.614Z,49416.03
2022-08-16T07:47:41.983Z,49422.00
2022-08-16T07:50:54.934Z,49412.03
2022-08-16T07:52:57.820Z,49392.09
2022-08-16T07:55:27.160Z,49392.09
2022-08-16T07:58:01.162Z,49433.97
2022-08-16T08:00:34.284Z,49402.06
2022-08-16T08:03:01.389Z,49424.00
2022-08-16T08:05:35.981Z,49408.06
2022-08-16T08:08:11.808Z,49396.09
2022-08-16T08:10:52.376Z,49416.03
2022-08-16T08:13:19.906Z,49378.16
2022-08-16T08:16:07.445Z,49404.06
2022-08-16T08:18:49.952Z,49414.03
2022-08-16T08:21:48.726Z,49412.03
2022-08-16T08:24:15.278Z,49400.06
2022-08-16T08:26:43.201Z,49388.13
2022-08-16T08:29:12.171Z,49408.06
2022-08-16T08:31:42.274Z,49433.97
2022-08-16T08:34:12.719Z,49406.06
2022-08-16T08:36:40.217Z,49398.09
2022-08-16T08:39:25.941Z,49404.06
2022-08-16T08:41:52.798Z,49362.19
2022-08-16T08:44:29.174Z,49410.03
2022-08-16T08:47:11.070Z,49398.09
2022-08-16T08:49:46.598Z,49394.09
2022-08-16T08:52:34.827Z,49392.09
2022-08-16T08:55:12.720Z,49388.13
2022-08-16T08:57:45.289Z,49384.13
2022-08-16T09:00:50.240Z,49408.06
2022-08-16T09:03:19.459Z,49380.13
2022-08-16T09:05:51.783Z,49406.06
2022-08-16T09:08:22.205Z,49380.13
2022-08-16T09:11:02.253Z,49390.09
2022-08-16T09:13:33.280Z,49364.19
2022-08-16T09:16:01.128Z,49332.31
2022-08-16T09:18:35.867Z,49364.19
2022-08-16T09:21:07.185Z,49384.13
2022-08-16T09:23:37.548Z,49324.31
2022-08-16T09:26:43.070Z,49360.22
2022-08-16T09:29:15.789Z,49338.28
2022-08-16T09:31:43.053Z,49358.22
2022-08-16T09:34:11.180Z,49360.22
2022-08-16T09:36:46.269Z,49384.13
2022-08-16T09:39:16.181Z,49372.16
2022-08-16T09:41:53.094Z,49344.25
2022-08-16T09:45:12.081Z,49332.31
2022-08-16T09:47:10.392Z,49336.28
2022-08-16T09:49:37.614Z,49356.22
2022-08-16T09:52:09.459Z,49324.31
2022-08-16T09:54:37.857Z,49340.28
2022-08-16T09:57:05.157Z,49326.31
2022-08-16T09:59:38.622Z,49346.25
2022-08-16T10:02:26.493Z,49332.31
2022-08-16T10:04:55.667Z,49322.34
2022-08-16T10:07:23.817Z,49324.31
2022-08-16T10:09:54.640Z,49350.25
2022-08-16T10:12:46.426Z,49326.31
2022-08-16T10:15:22.174Z,49346.25
2022-08-16T10:18:00.550Z,49322.34
2022-08-16T10:20:34.829Z,49320.34
2022-08-16T10:23:07.982Z,49316.34
2022-08-16T10:27:17.691Z,49324.31
2022-08-16T10:28:32.558Z,49322.34
2022-08-16T10:31:14.396Z,49294.44
2022-08-16T10:33:41.666Z,49316.34
2022-08-16T10:36:12.402Z,49294.44
2022-08-16T10:38:59.029Z,49332.31
2022-08-16T10:41:25.692Z,49328.31
2022-08-16T10:43:52.389Z,49288.44
2022-08-16T10:46:39.228Z,49288.44
2022-08-16T10:49:06.173Z,49332.31
2022-08-16T10:51:34.332Z,49316.34
2022-08-16T10:54:28.768Z,49334.28
2022-08-16T10:56:58.201Z,49308.38
2022-08-16T10:59:38.494Z,49300.41
2022-08-16T11:03:37.598Z,49316.34
2022-08-16T11:05:08.943Z,49344.25
2022-08-16T11:07:54.794Z,49306.38
2022-08-16T11:17:02.316Z,49328.31
2022-08-16T11:19:05.853Z,49328.31
2022-08-16T11:22:23.336Z,49338.28
2022-08-16T11:24:41.751Z,49306.38
2022-08-16T11:27:24.004Z,49304.41
2022-08-16T11:29:55.827Z,49344.25
2022-08-16T11:32:32.379Z,49316.34
2022-08-16T11:35:13.677Z,49268.50
2022-08-16T11:38:47.665Z,49296.41
2022-08-16T11:40:52.677Z,49264.53
2022-08-16T11:43:23.696Z,49266.53
2022-08-16T11:45:54.706Z,49248.59
2022-08-16T11:48:25.833Z,49262.53
2022-08-16T11:50:54.064Z,49292.44
2022-08-16T11:53:24.333Z,49250.56
2022-08-16T11:55:54.755Z,49272.50
2022-08-16T11:58:24.599Z,49256.56
2022-08-16T12:00:53.062Z,49268.50
2022-08-16T12:03:34.202Z,49274.50
2022-08-16T12:06:11.160Z,49316.34
2022-08-16T12:08:52.075Z,49298.41
2022-08-16T12:11:19.529Z,49276.50
2022-08-16T12:13:49.752Z,49292.44
2022-08-16T12:16:20.596Z,49288.44
2022-08-16T12:21:19.879Z,49302.41
2022-08-16T12:23:46.728Z,49280.47
2022-08-16T12:26:13.363Z,49266.53
2022-08-16T12:28:55.045Z,49276.50
2022-08-16T12:31:23.519Z,49306.38
2022-08-16T12:33:50.769Z,49288.44
2022-08-16T12:36:21.534Z,49294.44
2022-08-16T12:38:48.915Z,49274.50
2022-08-16T12:41:25.389Z,49268.50
2022-08-16T12:43:57.153Z,49256.56
2022-08-16T12:46:28.738Z,49236.63
2022-08-16T12:49:00.472Z,49264.53
2022-08-16T12:51:58.949Z,49278.47
2022-08-16T12:54:21.970Z,49260.53
2022-08-16T12:56:50.545Z,49268.50
2022-08-16T12:59:20.334Z,49256.56
2022-08-16T13:01:50.550Z,49272.50
2022-08-16T13:04:24.598Z,49264.53
2022-08-16T13:06:52.306Z,49282.47
2022-08-16T13:09:20.982Z,49272.50
2022-08-16T13:12:05.508Z,49272.50
2022-08-16T13:14:42.739Z,49232.63
2022-08-16T13:17:21.274Z,49254.56
2022-08-16T13:20:08.609Z,49274.50
2022-08-16T13:22:37.241Z,49260.53
2022-08-16T13:25:06.506Z,49286.44
2022-08-16T13:27:59.156Z,49300.41
2022-08-16T13:30:36.519Z,49254.56
2022-08-16T13:33:11.241Z,49280.47
2022-08-16T13:35:43.000Z,49286.44
2022-08-16T13:38:24.507Z,49230.63
2022-08-16T13:40:56.050Z,49272.50
2022-08-16T13:43:26.397Z,49252.56
2022-08-16T13:45:55.292Z,49274.50
2022-08-16T13:48:25.377Z,49284.47
2022-08-16T13:51:02.464Z,49304.41
2022-08-16T13:53:31.738Z,49280.47
2022-08-16T13:55:59.565Z,49268.50
2022-08-16T13:58:37.433Z,49274.50
2022-08-16T14:01:17.715Z,49284.47
2022-08-16T14:03:44.686Z,49282.47
2022-08-16T14:06:14.197Z,49284.47
2022-08-16T14:08:43.243Z,49268.50
2022-08-16T14:11:12.718Z,49276.50
2022-08-16T14:13:43.840Z,49276.50
2022-08-16T14:16:12.738Z,49256.56
2022-08-16T14:18:53.025Z,49258.53
2022-08-16T14:21:21.890Z,49292.44
2022-08-16T14:23:51.933Z,49284.47
2022-08-16T14:26:21.211Z,49284.47
2022-08-16T14:28:50.367Z,49278.47
2022-08-16T14:31:18.260Z,49244.59
2022-08-16T14:33:45.502Z,49286.44
2022-08-16T14:36:12.384Z,49316.34
2022-08-16T14:38:45.550Z,49272.50
2022-08-16T14:41:13.647Z,49294.44
2022-08-16T14:43:40.608Z,49272.50
2022-08-16T14:46:07.784Z,49288.44
2022-08-16T14:48:34.720Z,49290.44
2022-08-16T14:51:01.649Z,49280.47
2022-08-16T14:53:28.873Z,49296.41
2022-08-16T14:56:06.708Z,49308.38
2022-08-16T14:58:36.742Z,49268.50
2022-08-16T15:01:06.103Z,49292.44
2022-08-16T15:03:37.630Z,49308.38
2022-08-16T15:06:05.074Z,49302.41
2022-08-16T15:08:36.608Z,49292.44
2022-08-16T15:11:05.300Z,49324.31
2022-08-16T15:13:32.253Z,49284.47
2022-08-16T15:16:02.800Z,49280.47
2022-08-16T15:18:31.886Z,49304.41
2022-08-16T15:21:04.033Z,49276.50
2022-08-16T15:23:34.019Z,49288.44
2022-08-16T15:26:02.946Z,49268.50
2022-08-16T15:28:32.585Z,49284.47
2022-08-16T15:31:06.168Z,49236.63
2022-08-16T15:33:35.870Z,49224.66
2022-08-16T15:36:09.770Z,49268.50
2022-08-16T15:39:02.763Z,49214.69
2022-08-16T15:41:47.834Z,49268.50
2022-08-16T15:44:22.213Z,49238.63
2022-08-16T15:46:56.482Z,49270.50
2022-08-16T15:49:37.312Z,49264.53
2022-08-16T15:52:30.634Z,49260.53
2022-08-16T15:55:13.114Z,49254.56
2022-08-16T15:57:51.299Z,49292.44
2022-08-16T16:00:20.649Z,49278.47
2022-08-16T16:02:49.533Z,49278.47
2022-08-16T16:05:17.110Z,49260.53
2022-08-16T16:07:55.861Z,49256.56
2022-08-16T16:10:29.285Z,49268.50
2022-08-16T16:12:59.773Z,49226.66
2022-08-16T16:15:30.101Z,49260.53
2022-08-16T16:17:57.942Z,49260.53
2022-08-16T16:20:27.845Z,49228.66
2022-08-16T16:23:03.242Z,49252.56
2022-08-16T16:25:30.768Z,49282.47
2022-08-16T16:27:59.835Z,49292.44
2022-08-16T16:30:44.234Z,49282.47
2022-08-16T16:33:20.825Z,49284.47
2022-08-16T16:35:54.923Z,49298.41
2022-08-16T16:38:24.379Z,49292.44
2022-08-16T16:40:54.219Z,49296.41
2022-08-16T16:43:25.860Z,49280.47
2022-08-16T16:45:59.209Z,49276.50
2022-08-16T16:48:29.837Z,49286.44
2022-08-16T16:51:09.053Z,49296.41
2022-08-16T16:53:41.151Z,49274.50
2022-08-16T16:56:10.492Z,49288.44
2022-08-16T16:58:56.595Z,49316.34
2022-08-16T17:01:35.239Z,49292.44
2022-08-16T17:04:19.541Z,49272.50
2022-08-16T17:06:53.552Z,49288.44
2022-08-16T17:09:24.236Z,49324.31
2022-08-16T17:11:55.532Z,49292.44
2022-08-16T17:14:33.215Z,49284.47
2022-08-16T17:17:04.951Z,49282.47
2022-08-16T17:19:32.147Z,49302.41
2022-08-16T17:22:00.575Z,49328.31
2022-08-16T17:24:39.278Z,49286.44
2022-08-16T17:27:06.670Z,49316.34
2022-08-16T17:29:33.533Z,49312.38
2022-08-16T17:32:33.173Z,49324.31
2022-08-16T17:34:50.620Z,49296.41
2022-08-16T17:37:18.123Z,49316.34
2022-08-16T17:40:00.465Z,49320.34
2022-08-16T17:42:30.908Z,49256.56
2022-08-16T17:44:58.153Z,49282.47
2022-08-16T17:47:25.333Z,49280.47
2022-08-16T17:49:52.164Z,49330.31
2022-08-16T17:52:19.328Z,49364.19
2022-08-16T17:54:46.491Z,49304.41
2022-08-16T17:57:14.086Z,49288.44
2022-08-16T17:59:44.116Z,49340.28
2022-08-16T18:02:42.409Z,49342.28
2022-08-16T18:04:57.747Z,49272.50
2022-08-16T18:07:24.413Z,49328.31
2022-08-16T18:09:52.456Z,49340.28
2022-08-16T18:12:44.133Z,49322.34
2022-08-16T18:15:12.428Z,49292.44
2022-08-16T18:17:39.408Z,49324.31
2022-08-16T18:20:08.089Z,49292.44
2022-08-16T18:22:34.821Z,49330.31
2022-08-16T18:25:01.619Z,49320.34
2022-08-16T18:27:29.974Z,49344.25
2022-08-16T18:29:56.739Z,49300.41
2022-08-16T18:32:25.095Z,49330.31
2022-08-16T18:34:54.233Z,49350.25
2022-08-16T18:37:23.273Z,49340.28
2022-08-16T18:39:50.196Z,49336.28
2022-08-16T18:42:16.917Z,49340.28
2022-08-16T18:44:44.427Z,49308.38
2022-08-16T18:47:11.529Z,49334.28
2022-08-16T18:49:38.279Z,49348.25
2022-08-16T18:52:05.809Z,49326.31
2022-08-16T18:54:33.833Z,49360.22
2022-08-16T18:57:20.549Z,49340.28
2022-08-16T18:59:47.228Z,49316.34
2022-08-16T19:02:42.922Z,49360.22
2022-08-16T19:05:13.769Z,49324.31
2022-08-16T19:07:40.617Z,49356.22
2022-08-16T19:10:08.397Z,49320.34
2022-08-16T19:12:42.160Z,49372.16
2022-08-16T19:15:13.310Z,49336.28
2022-08-16T19:17:41.386Z,49354.22
2022-08-16T19:20:10.956Z,49372.16
2022-08-16T19:23:02.378Z,49366.19
2022-08-16T19:25:49.109Z,49344.25
2022-08-16T19:28:49.013Z,49344.25
2022-08-16T19:31:18.920Z,49366.19
2022-08-16T19:33:54.440Z,49302.41
2022-08-16T19:36:36.380Z,49364.19
2022-08-16T19:39:11.237Z,49362.19
2022-08-16T19:41:44.060Z,49380.13
2022-08-16T19:44:11.506Z,49386.13
2022-08-16T19:46:38.421Z,49336.28
2022-08-16T19:49:05.638Z,49348.25
2022-08-16T19:51:32.759Z,49336.28
2022-08-16T19:53:59.830Z,49322.34
2022-08-16T19:56:26.803Z,49340.28
2022-08-16T20:01:43.094Z,49368.19
2022-08-16T20:04:13.586Z,49386.13
2022-08-16T20:06:41.501Z,49344.25
2022-08-16T20:09:08.239Z,49378.16
2022-08-16T20:11:38.327Z,49388.13
2022-08-16T20:14:05.602Z,49380.13
2022-08-16T20:16:32.294Z,49364.19
2022-08-16T20:18:58.931Z,49336.28
2022-08-16T20:21:25.619Z,49364.19
2022-08-16T20:23:52.776Z,49386.13
2022-08-16T20:26:24.686Z,49376.16
2022-08-16T20:28:53.638Z,49362.19
2022-08-16T20:31:25.489Z,49368.19
2022-08-16T20:33:53.231Z,49382.13
2022-08-16T20:36:19.767Z,49364.19
2022-08-16T20:38:47.610Z,49380.13
2022-08-16T20:41:16.116Z,49352.22
2022-08-16T20:43:43.074Z,49396.09
2022-08-16T20:46:10.316Z,49368.19
2022-08-16T20:48:37.036Z,49348.25
2022-08-16T20:51:04.172Z,49362.19
2022-08-16T20:53:30.977Z,49362.19
2022-08-16T20:55:57.694Z,49356.22
2022-08-16T20:58:24.524Z,49348.25
2022-08-16T21:00:51.340Z,49396.09
2022-08-16T21:03:18.070Z,49352.22
2022-08-16T21:05:46.612Z,49400.06
2022-08-16T21:08:51.167Z,49372.16
2022-08-16T21:11:03.079Z,49348.25
2022-08-16T21:13:30.957Z,49346.25
2022-08-16T21:15:59.034Z,49364.19
2022-08-16T21:18:26.100Z,49344.25
2022-08-16T21:20:53.607Z,49376.16
2022-08-16T21:23:20.699Z,49370.19
2022-08-16T21:25:58.312Z,49388.13
2022-08-16T21:28:38.796Z,49376.16
2022-08-16T21:31:09.394Z,49382.13
2022-08-16T21:33:36.471Z,49350.25
2022-08-16T21:36:03.389Z,49404.06
2022-08-16T21:38:31.139Z,49360.22
2022-08-16T21:40:59.716Z,49388.13
2022-08-16T21:43:32.205Z,49372.16
2022-08-16T21:46:04.521Z,49378.16
2022-08-16T21:48:34.792Z,49400.06
2022-08-16T21:51:11.547Z,49366.19
2022-08-16T21:53:38.746Z,49372.16
2022-08-16T21:56:06.545Z,49372.16
2022-08-16T21:58:35.623Z,49396.09
2022-08-16T22:01:03.893Z,49396.09
2022-08-16T22:03:32.817Z,49408.06
2022-08-16T22:06:13.257Z,49390.09
2022-08-16T22:08:49.588Z,49366.19
2022-08-16T22:11:22.481Z,49378.16
2022-08-16T22:13:57.328Z,49372.16
2022-08-16T22:16:29.049Z,49340.28
2022-08-16T22:18:55.953Z,49392.09
2022-08-16T22:21:23.277Z,49396.09
2022-08-16T22:23:56.799Z,49364.19
2022-08-16T22:26:30.142Z,49408.06
2022-08-16T22:29:02.535Z,49380.13
2022-08-16T22:31:29.527Z,49410.03
2022-08-16T22:33:56.893Z,49388.13
2022-08-16T22:36:28.612Z,49400.06
2022-08-16T22:38:58.309Z,49344.25
2022-08-16T22:41:27.889Z,49382.13
2022-08-16T22:43:55.096Z,49398.09
2022-08-16T22:46:21.872Z,49390.09
2022-08-16T22:48:51.661Z,49396.09
2022-08-16T22:51:23.505Z,49422.00
2022-08-16T22:53:51.672Z,49392.09
2022-08-16T22:56:19.902Z,49376.16
2022-08-16T22:58:47.227Z,49408.06
2022-08-16T23:01:15.802Z,49392.09
2022-08-16T23:03:43.407Z,49372.16
2022-08-16T23:06:12.889Z,49372.16
2022-08-16T23:08:41.774Z,49396.09
2022-08-16T23:11:19.462Z,49370.19
2022-08-16T23:13:50.124Z,49412.03
2022-08-16T23:16:25.088Z,49388.13
2022-08-16T23:18:59.988Z,49404.06
2022-08-16T23:21:26.666Z,49420.00
2022-08-16T23:23:53.989Z,49400.06
2022-08-16T23:26:44.873Z,49368.19
2022-08-16T23:29:21.175Z,49402.06
2022-08-16T23:31:50.411Z,49376.16
2022-08-16T23:34:20.947Z,49404.06
2022-08-16T23:36:47.570Z,49372.16
2022-08-16T23:39:14.274Z,49402.06
2022-08-16T23:41:40.883Z,49390.09
2022-08-16T23:44:55.145Z,49390.09
2022-08-16T23:46:54.638Z,49400.06
2022-08-16T23:49:59.855Z,49404.06
2022-08-16T23:52:11.528Z,49394.09
2022-08-16T23:54:38.191Z,49384.13
2022-08-16T23:57:04.962Z,49433.97
2022-08-16T23:59:35.943Z,49396.09
